sensor_id;sensor_type;location;lat;lon;timestamp;pressure;altitude;pressure_sealevel;temperature;humidity
9289;BME280;4683;50.864;12.086;2023-12-14T00:01:09;97890.84;;;8.15;100.00
9289;BME280;4683;50.864;12.086;2023-12-14T00:03:46;97897.25;;;8.06;100.00
9289;BME280;4683;50.864;12.086;2023-12-14T00:06:15;97898.88;;;8.07;100.00
9289;BME280;4683;50.864;12.086;2023-12-14T00:08:47;97904.56;;;8.17;100.00
9289;BME280;4683;50.864;12.086;2023-12-14T00:11:18;97900.59;;;8.28;100.00
9289;BME280;4683;50.864;12.086;2023-12-14T00:13:50;97910.53;;;8.32;100.00
9289;BME280;4683;50.864;12.086;2023-12-14T00:16:19;97914.66;;;8.42;100.00
9289;BME280;4683;50.864;12.086;2023-12-14T00:19:01;97914.75;;;8.27;100.00
9289;BME280;4683;50.864;12.086;2023-12-14T00:21:42;97917.97;;;8.22;100.00
9289;BME280;4683;50.864;12.086;2023-12-14T00:24:14;97922.84;;;8.32;100.00
9289;BME280;4683;50.864;12.086;2023-12-14T00:26:43;97926.53;;;8.37;100.00
9289;BME280;4683;50.864;12.086;2023-12-14T00:29:25;97932.59;;;8.38;100.00
9289;BME280;4683;50.864;12.086;2023-12-14T00:32:09;97933.72;;;8.22;100.00
9289;BME280;4683;50.864;12.086;2023-12-14T00:34:47;97936.59;;;8.34;100.00
9289;BME280;4683;50.864;12.086;2023-12-14T00:37:19;97939.84;;;8.36;100.00
9289;BME280;4683;50.864;12.086;2023-12-14T00:39:57;97948.81;;;8.42;100.00
9289;BME280;4683;50.864;12.086;2023-12-14T00:42:35;97948.00;;;8.48;100.00
9289;BME280;4683;50.864;12.086;2023-12-14T00:45:05;97956.75;;;8.55;100.00
9289;BME280;4683;50.864;12.086;2023-12-14T00:47:35;97960.00;;;8.57;100.00
9289;BME280;4683;50.864;12.086;2023-12-14T00:50:07;97962.00;;;8.55;100.00
9289;BME280;4683;50.864;12.086;2023-12-14T00:52:47;97971.28;;;8.51;100.00
9289;BME280;4683;50.864;12.086;2023-12-14T00:55:20;97975.53;;;8.52;100.00
9289;BME280;4683;50.864;12.086;2023-12-14T00:58:03;97989.06;;;8.49;100.00
9289;BME280;4683;50.864;12.086;2023-12-14T01:00:48;97999.78;;;8.47;100.00
9289;BME280;4683;50.864;12.086;2023-12-14T01:03:35;97999.53;;;8.14;100.00
9289;BME280;4683;50.864;12.086;2023-12-14T01:06:15;97997.94;;;7.92;100.00
9289;BME280;4683;50.864;12.086;2023-12-14T01:08:45;98000.25;;;7.80;100.00
9289;BME280;4683;50.864;12.086;2023-12-14T01:11:21;97988.28;;;7.71;100.00
9289;BME280;4683;50.864;12.086;2023-12-14T01:14:01;97979.34;;;7.65;100.00
9289;BME280;4683;50.864;12.086;2023-12-14T01:16:32;97976.25;;;7.83;100.00
9289;BME280;4683;50.864;12.086;2023-12-14T01:19:05;97975.16;;;7.99;100.00
9289;BME280;4683;50.864;12.086;2023-12-14T01:21:39;97988.00;;;8.15;100.00
9289;BME280;4683;50.864;12.086;2023-12-14T01:24:14;97992.59;;;8.34;100.00
9289;BME280;4683;50.864;12.086;2023-12-14T01:27:01;97997.75;;;8.49;100.00
9289;BME280;4683;50.864;12.086;2023-12-14T01:29:30;98001.00;;;8.51;100.00
9289;BME280;4683;50.864;12.086;2023-12-14T01:32:00;98012.09;;;8.47;100.00
9289;BME280;4683;50.864;12.086;2023-12-14T01:34:29;98015.50;;;8.41;100.00
9289;BME280;4683;50.864;12.086;2023-12-14T01:37:00;98013.47;;;8.43;100.00
9289;BME280;4683;50.864;12.086;2023-12-14T01:39:30;98018.50;;;8.37;100.00
9289;BME280;4683;50.864;12.086;2023-12-14T01:42:30;98019.84;;;8.27;100.00
9289;BME280;4683;50.864;12.086;2023-12-14T01:49:04;98026.16;;;8.11;100.00
9289;BME280;4683;50.864;12.086;2023-12-14T01:51:32;98026.28;;;8.03;100.00
9289;BME280;4683;50.864;12.086;2023-12-14T01:54:10;98029.38;;;8.06;100.00
9289;BME280;4683;50.864;12.086;2023-12-14T01:56:48;98021.69;;;8.05;100.00
9289;BME280;4683;50.864;12.086;2023-12-14T01:59:29;98028.69;;;7.98;100.00
9289;BME280;4683;50.864;12.086;2023-12-14T02:01:58;98033.25;;;7.89;100.00
9289;BME280;4683;50.864;12.086;2023-12-14T02:04:30;98029.34;;;7.78;100.00
9289;BME280;4683;50.864;12.086;2023-12-14T02:07:10;98028.28;;;7.73;100.00
9289;BME280;4683;50.864;12.086;2023-12-14T02:09:47;98030.94;;;7.79;100.00
9289;BME280;4683;50.864;12.086;2023-12-14T02:12:29;98021.94;;;7.88;100.00
9289;BME280;4683;50.864;12.086;2023-12-14T02:15:11;98027.19;;;7.88;100.00
9289;BME280;4683;50.864;12.086;2023-12-14T02:17:41;98035.19;;;7.80;100.00
9289;BME280;4683;50.864;12.086;2023-12-14T02:20:12;98027.53;;;7.79;100.00
9289;BME280;4683;50.864;12.086;2023-12-14T02:22:52;98034.13;;;7.75;100.00
9289;BME280;4683;50.864;12.086;2023-12-14T02:25:24;98039.94;;;7.70;100.00
9289;BME280;4683;50.864;12.086;2023-12-14T02:28:12;98035.19;;;7.80;100.00
9289;BME280;4683;50.864;12.086;2023-12-14T02:30:45;98038.06;;;8.07;100.00
9289;BME280;4683;50.864;12.086;2023-12-14T02:33:20;98033.91;;;8.19;100.00
9289;BME280;4683;50.864;12.086;2023-12-14T02:35:56;98054.94;;;8.19;100.00
9289;BME280;4683;50.864;12.086;2023-12-14T02:38:37;98049.13;;;8.30;100.00
9289;BME280;4683;50.864;12.086;2023-12-14T02:41:22;98059.41;;;8.25;100.00
9289;BME280;4683;50.864;12.086;2023-12-14T02:44:07;98063.03;;;8.24;100.00
9289;BME280;4683;50.864;12.086;2023-12-14T02:46:51;98072.16;;;8.28;100.00
9289;BME280;4683;50.864;12.086;2023-12-14T02:49:20;98070.25;;;8.37;100.00
9289;BME280;4683;50.864;12.086;2023-12-14T02:51:56;98079.38;;;8.41;100.00
9289;BME280;4683;50.864;12.086;2023-12-14T02:54:40;98073.44;;;8.60;100.00
9289;BME280;4683;50.864;12.086;2023-12-14T02:57:21;98080.19;;;8.76;100.00
9289;BME280;4683;50.864;12.086;2023-12-14T02:59:56;98081.44;;;8.80;100.00
9289;BME280;4683;50.864;12.086;2023-12-14T03:02:55;98085.94;;;8.86;100.00
9289;BME280;4683;50.864;12.086;2023-12-14T03:05:36;98096.69;;;8.92;100.00
9289;BME280;4683;50.864;12.086;2023-12-14T03:08:22;98110.84;;;8.91;100.00
9289;BME280;4683;50.864;12.086;2023-12-14T03:10:59;98115.16;;;8.70;100.00
9289;BME280;4683;50.864;12.086;2023-12-14T03:13:44;98115.06;;;8.57;100.00
9289;BME280;4683;50.864;12.086;2023-12-14T03:16:13;98117.22;;;8.47;100.00
9289;BME280;4683;50.864;12.086;2023-12-14T03:18:53;98125.78;;;8.34;100.00
9289;BME280;4683;50.864;12.086;2023-12-14T03:21:34;98124.28;;;8.25;100.00
9289;BME280;4683;50.864;12.086;2023-12-14T03:24:03;98121.41;;;8.20;100.00
9289;BME280;4683;50.864;12.086;2023-12-14T03:26:52;98126.63;;;8.13;100.00
9289;BME280;4683;50.864;12.086;2023-12-14T03:29:22;98127.53;;;8.05;100.00
9289;BME280;4683;50.864;12.086;2023-12-14T03:32:04;98127.09;;;8.02;100.00
9289;BME280;4683;50.864;12.086;2023-12-14T03:34:45;98124.84;;;7.99;100.00
9289;BME280;4683;50.864;12.086;2023-12-14T03:37:18;98134.66;;;7.90;100.00
9289;BME280;4683;50.864;12.086;2023-12-14T03:40:09;98135.75;;;7.81;100.00
9289;BME280;4683;50.864;12.086;2023-12-14T03:42:44;98138.31;;;7.74;100.00
9289;BME280;4683;50.864;12.086;2023-12-14T03:45:26;98138.81;;;7.63;100.00
9289;BME280;4683;50.864;12.086;2023-12-14T03:48:05;98146.03;;;7.61;100.00
9289;BME280;4683;50.864;12.086;2023-12-14T03:50:35;98147.78;;;7.54;100.00
9289;BME280;4683;50.864;12.086;2023-12-14T03:53:13;98149.47;;;7.61;100.00
9289;BME280;4683;50.864;12.086;2023-12-14T03:59:52;98153.94;;;7.46;100.00
9289;BME280;4683;50.864;12.086;2023-12-14T04:02:34;98166.88;;;7.48;100.00
9289;BME280;4683;50.864;12.086;2023-12-14T04:05:23;98172.31;;;7.46;100.00
9289;BME280;4683;50.864;12.086;2023-12-14T04:08:09;98170.94;;;7.35;100.00
9289;BME280;4683;50.864;12.086;2023-12-14T04:10:55;98179.81;;;7.34;100.00
9289;BME280;4683;50.864;12.086;2023-12-14T04:13:43;98179.56;;;7.29;100.00
9289;BME280;4683;50.864;12.086;2023-12-14T04:16:23;98183.66;;;7.32;100.00
9289;BME280;4683;50.864;12.086;2023-12-14T04:19:05;98185.25;;;7.33;100.00
9289;BME280;4683;50.864;12.086;2023-12-14T04:21:38;98195.22;;;7.37;100.00
9289;BME280;4683;50.864;12.086;2023-12-14T04:24:12;98201.63;;;7.35;100.00
9289;BME280;4683;50.864;12.086;2023-12-14T04:26:52;98198.56;;;7.31;100.00
9289;BME280;4683;50.864;12.086;2023-12-14T04:29:50;98210.22;;;7.29;100.00
9289;BME280;4683;50.864;12.086;2023-12-14T04:32:24;98214.56;;;7.22;100.00
9289;BME280;4683;50.864;12.086;2023-12-14T04:34:53;98220.44;;;7.09;100.00
9289;BME280;4683;50.864;12.086;2023-12-14T04:37:25;98225.47;;;6.96;100.00
9289;BME280;4683;50.864;12.086;2023-12-14T04:40:00;98222.00;;;6.80;100.00
9289;BME280;4683;50.864;12.086;2023-12-14T04:42:33;98217.28;;;6.76;100.00
9289;BME280;4683;50.864;12.086;2023-12-14T04:45:18;98224.06;;;6.70;100.00
9289;BME280;4683;50.864;12.086;2023-12-14T04:47:57;98228.19;;;6.65;100.00
9289;BME280;4683;50.864;12.086;2023-12-14T04:50:45;98229.19;;;6.64;100.00
9289;BME280;4683;50.864;12.086;2023-12-14T04:53:15;98222.16;;;6.64;100.00
9289;BME280;4683;50.864;12.086;2023-12-14T04:55:50;98230.97;;;6.63;100.00
9289;BME280;4683;50.864;12.086;2023-12-14T04:58:31;98233.69;;;6.55;100.00
9289;BME280;4683;50.864;12.086;2023-12-14T05:01:08;98234.84;;;6.52;100.00
9289;BME280;4683;50.864;12.086;2023-12-14T05:03:40;98233.69;;;6.55;100.00
9289;BME280;4683;50.864;12.086;2023-12-14T05:06:24;98241.19;;;6.58;100.00
9289;BME280;4683;50.864;12.086;2023-12-14T05:09:10;98242.16;;;6.57;100.00
9289;BME280;4683;50.864;12.086;2023-12-14T05:11:52;98251.03;;;6.56;100.00
9289;BME280;4683;50.864;12.086;2023-12-14T05:14:40;98251.03;;;6.56;100.00
9289;BME280;4683;50.864;12.086;2023-12-14T05:17:19;98271.34;;;6.54;100.00
9289;BME280;4683;50.864;12.086;2023-12-14T05:19:51;98262.94;;;6.35;100.00
9289;BME280;4683;50.864;12.086;2023-12-14T05:22:27;98266.69;;;6.41;100.00
9289;BME280;4683;50.864;12.086;2023-12-14T05:24:56;98271.75;;;6.43;100.00
9289;BME280;4683;50.864;12.086;2023-12-14T05:27:26;98269.94;;;6.43;100.00
9289;BME280;4683;50.864;12.086;2023-12-14T05:30:01;98268.50;;;6.41;100.00
9289;BME280;4683;50.864;12.086;2023-12-14T05:32:46;98277.69;;;6.37;100.00
9289;BME280;4683;50.864;12.086;2023-12-14T05:35:31;98273.06;;;6.39;100.00
9289;BME280;4683;50.864;12.086;2023-12-14T05:38:07;98282.63;;;6.31;100.00
9289;BME280;4683;50.864;12.086;2023-12-14T05:40:35;98282.63;;;6.31;100.00
9289;BME280;4683;50.864;12.086;2023-12-14T05:43:13;98279.66;;;6.34;100.00
9289;BME280;4683;50.864;12.086;2023-12-14T05:45:50;98288.69;;;6.32;100.00
9289;BME280;4683;50.864;12.086;2023-12-14T05:48:18;98291.75;;;6.35;100.00
9289;BME280;4683;50.864;12.086;2023-12-14T05:50:51;98294.50;;;6.42;100.00
9289;BME280;4683;50.864;12.086;2023-12-14T05:53:32;98309.44;;;6.33;100.00
9289;BME280;4683;50.864;12.086;2023-12-14T05:56:08;98305.50;;;6.38;100.00
9289;BME280;4683;50.864;12.086;2023-12-14T05:58:50;98308.75;;;6.40;100.00
9289;BME280;4683;50.864;12.086;2023-12-14T06:01:20;98311.06;;;6.34;100.00
9289;BME280;4683;50.864;12.086;2023-12-14T06:03:55;98325.88;;;6.27;100.00
9289;BME280;4683;50.864;12.086;2023-12-14T06:06:31;98330.28;;;6.27;100.00
9289;BME280;4683;50.864;12.086;2023-12-14T06:09:10;98331.72;;;6.29;100.00
9289;BME280;4683;50.864;12.086;2023-12-14T06:11:49;98336.16;;;6.29;100.00
9289;BME280;4683;50.864;12.086;2023-12-14T06:14:31;98340.88;;;6.33;100.00
9289;BME280;4683;50.864;12.086;2023-12-14T06:17:12;98343.16;;;6.37;100.00
9289;BME280;4683;50.864;12.086;2023-12-14T06:19:50;98354.59;;;6.35;100.00
9289;BME280;4683;50.864;12.086;2023-12-14T06:22:22;98361.50;;;6.37;100.00
9289;BME280;4683;50.864;12.086;2023-12-14T06:25:04;98364.75;;;6.39;100.00
9289;BME280;4683;50.864;12.086;2023-12-14T06:27:49;98363.16;;;6.29;100.00
9289;BME280;4683;50.864;12.086;2023-12-14T06:30:21;98373.94;;;6.34;100.00
9289;BME280;4683;50.864;12.086;2023-12-14T06:32:56;98381.78;;;6.34;100.00
9289;BME280;4683;50.864;12.086;2023-12-14T06:35:33;98382.50;;;6.20;100.00
9289;BME280;4683;50.864;12.086;2023-12-14T06:38:04;98390.06;;;6.15;100.00
9289;BME280;4683;50.864;12.086;2023-12-14T06:40:47;98389.72;;;6.18;100.00
9289;BME280;4683;50.864;12.086;2023-12-14T06:43:36;98388.56;;;6.21;100.00
9289;BME280;4683;50.864;12.086;2023-12-14T06:46:13;98392.53;;;6.08;100.00
9289;BME280;4683;50.864;12.086;2023-12-14T06:48:59;98393.03;;;6.04;100.00
9289;BME280;4683;50.864;12.086;2023-12-14T06:51:29;98395.00;;;6.02;100.00
9289;BME280;4683;50.864;12.086;2023-12-14T06:54:04;98403.50;;;6.04;100.00
9289;BME280;4683;50.864;12.086;2023-12-14T06:57:03;98401.75;;;5.96;100.00
9289;BME280;4683;50.864;12.086;2023-12-14T06:59:33;98403.69;;;6.02;100.00
9289;BME280;4683;50.864;12.086;2023-12-14T07:02:03;98411.69;;;6.09;100.00
9289;BME280;4683;50.864;12.086;2023-12-14T07:04:35;98416.94;;;6.09;100.00
9289;BME280;4683;50.864;12.086;2023-12-14T07:07:12;98426.09;;;6.05;100.00
9289;BME280;4683;50.864;12.086;2023-12-14T07:10:07;98427.41;;;6.09;100.00
9289;BME280;4683;50.864;12.086;2023-12-14T07:12:50;98429.00;;;6.18;100.00
9289;BME280;4683;50.864;12.086;2023-12-14T07:15:35;98440.13;;;6.20;100.00
9289;BME280;4683;50.864;12.086;2023-12-14T07:18:16;98445.03;;;6.23;100.00
9289;BME280;4683;50.864;12.086;2023-12-14T07:20:46;98453.91;;;5.98;100.00
9289;BME280;4683;50.864;12.086;2023-12-14T07:23:15;98457.53;;;5.97;100.00
9289;BME280;4683;50.864;12.086;2023-12-14T07:25:53;98451.78;;;6.01;100.00
9289;BME280;4683;50.864;12.086;2023-12-14T07:28:34;98459.81;;;5.92;100.00
9289;BME280;4683;50.864;12.086;2023-12-14T07:31:10;98462.56;;;5.98;100.00
9289;BME280;4683;50.864;12.086;2023-12-14T07:33:46;98477.63;;;6.04;100.00
9289;BME280;4683;50.864;12.086;2023-12-14T07:36:16;98477.59;;;6.13;100.00
9289;BME280;4683;50.864;12.086;2023-12-14T07:39:02;98489.88;;;6.20;100.00
9289;BME280;4683;50.864;12.086;2023-12-14T07:41:34;98492.00;;;6.08;100.00
9289;BME280;4683;50.864;12.086;2023-12-14T07:44:04;98498.03;;;6.17;100.00
9289;BME280;4683;50.864;12.086;2023-12-14T07:46:38;98499.84;;;6.08;100.00
9289;BME280;4683;50.864;12.086;2023-12-14T07:49:15;98510.50;;;5.99;100.00
9289;BME280;4683;50.864;12.086;2023-12-14T07:51:58;98512.00;;;6.01;100.00
9289;BME280;4683;50.864;12.086;2023-12-14T07:54:28;98518.53;;;6.05;100.00
9289;BME280;4683;50.864;12.086;2023-12-14T07:57:02;98524.22;;;6.17;100.00
9289;BME280;4683;50.864;12.086;2023-12-14T07:59:40;98526.53;;;6.20;100.00
9289;BME280;4683;50.864;12.086;2023-12-14T08:02:21;98542.59;;;6.09;100.00
9289;BME280;4683;50.864;12.086;2023-12-14T08:04:58;98535.06;;;5.98;100.00
9289;BME280;4683;50.864;12.086;2023-12-14T08:07:28;98552.75;;;5.96;100.00
9289;BME280;4683;50.864;12.086;2023-12-14T08:09:59;98555.47;;;5.78;100.00
9289;BME280;4683;50.864;12.086;2023-12-14T08:12:39;98557.75;;;5.81;100.00
9289;BME280;4683;50.864;12.086;2023-12-14T08:15:09;98557.13;;;5.87;100.00
9289;BME280;4683;50.864;12.086;2023-12-14T08:17:52;98563.22;;;5.96;100.00
9289;BME280;4683;50.864;12.086;2023-12-14T08:20:29;98566.78;;;5.95;100.00
9289;BME280;4683;50.864;12.086;2023-12-14T08:22:58;98575.63;;;5.94;100.00
9289;BME280;4683;50.864;12.086;2023-12-14T08:25:27;98591.78;;;5.81;100.00
9289;BME280;4683;50.864;12.086;2023-12-14T08:27:59;98587.38;;;5.81;100.00
9289;BME280;4683;50.864;12.086;2023-12-14T08:30:32;98582.63;;;5.85;100.00
9289;BME280;4683;50.864;12.086;2023-12-14T08:33:09;98589.69;;;5.93;100.00
9289;BME280;4683;50.864;12.086;2023-12-14T08:35:39;98592.97;;;5.95;100.00
9289;BME280;4683;50.864;12.086;2023-12-14T08:38:14;98595.44;;;6.04;100.00
9289;BME280;4683;50.864;12.086;2023-12-14T08:40:57;98601.97;;;6.00;100.00
9289;BME280;4683;50.864;12.086;2023-12-14T08:43:27;98609.34;;;6.05;100.00
9289;BME280;4683;50.864;12.086;2023-12-14T08:46:17;98610.47;;;6.02;100.00
9289;BME280;4683;50.864;12.086;2023-12-14T08:49:01;98615.91;;;6.09;100.00
9289;BME280;4683;50.864;12.086;2023-12-14T08:51:31;98628.00;;;6.10;100.00
9289;BME280;4683;50.864;12.086;2023-12-14T08:54:06;98647.94;;;6.03;100.00
9289;BME280;4683;50.864;12.086;2023-12-14T08:56:48;98648.28;;;6.08;100.00
9289;BME280;4683;50.864;12.086;2023-12-14T08:59:19;98652.22;;;6.12;100.00
9289;BME280;4683;50.864;12.086;2023-12-14T09:01:55;98655.16;;;6.17;100.00
9289;BME280;4683;50.864;12.086;2023-12-14T09:04:25;98659.25;;;6.12;100.00
9289;BME280;4683;50.864;12.086;2023-12-14T09:06:52;98663.69;;;6.19;100.00
9289;BME280;4683;50.864;12.086;2023-12-14T09:09:21;98664.00;;;6.24;100.00
9289;BME280;4683;50.864;12.086;2023-12-14T09:12:00;98677.44;;;6.21;100.00
9289;BME280;4683;50.864;12.086;2023-12-14T09:14:29;98683.00;;;6.26;100.00
9289;BME280;4683;50.864;12.086;2023-12-14T09:17:01;98686.25;;;6.12;100.00
9289;BME280;4683;50.864;12.086;2023-12-14T09:19:48;98693.44;;;6.02;100.00
9289;BME280;4683;50.864;12.086;2023-12-14T09:22:22;98704.91;;;6.01;100.00
9289;BME280;4683;50.864;12.086;2023-12-14T09:24:59;98702.28;;;6.01;100.00
9289;BME280;4683;50.864;12.086;2023-12-14T09:27:30;98704.91;;;6.09;100.00
9289;BME280;4683;50.864;12.086;2023-12-14T09:30:10;98713.09;;;6.06;100.00
9289;BME280;4683;50.864;12.086;2023-12-14T09:32:57;98714.53;;;6.08;100.00
9289;BME280;4683;50.864;12.086;2023-12-14T09:35:44;98726.22;;;6.30;100.00
9289;BME280;4683;50.864;12.086;2023-12-14T09:38:23;98720.50;;;6.43;100.00
9289;BME280;4683;50.864;12.086;2023-12-14T09:41:12;98728.06;;;6.46;100.00
9289;BME280;4683;50.864;12.086;2023-12-14T09:43:51;98741.13;;;6.38;100.00
9289;BME280;4683;50.864;12.086;2023-12-14T09:46:42;98740.13;;;6.31;100.00
9289;BME280;4683;50.864;12.086;2023-12-14T09:49:30;98752.09;;;6.33;100.00
9289;BME280;4683;50.864;12.086;2023-12-14T09:52:04;98743.22;;;6.26;100.00
9289;BME280;4683;50.864;12.086;2023-12-14T09:54:48;98746.53;;;6.28;100.00
9289;BME280;4683;50.864;12.086;2023-12-14T09:57:29;98752.75;;;6.27;100.00
9289;BME280;4683;50.864;12.086;2023-12-14T10:00:32;98750.28;;;6.18;100.00
9289;BME280;4683;50.864;12.086;2023-12-14T10:03:31;98757.72;;;5.96;100.00
9289;BME280;4683;50.864;12.086;2023-12-14T10:06:18;98755.31;;;6.11;100.00
9289;BME280;4683;50.864;12.086;2023-12-14T10:09:00;98760.84;;;6.08;100.00
9289;BME280;4683;50.864;12.086;2023-12-14T10:11:44;98760.72;;;6.09;100.00
9289;BME280;4683;50.864;12.086;2023-12-14T10:14:22;98762.72;;;6.24;100.00
9289;BME280;4683;50.864;12.086;2023-12-14T10:17:17;98761.94;;;6.31;100.00
9289;BME280;4683;50.864;12.086;2023-12-14T10:20:11;98779.06;;;6.26;100.00
9289;BME280;4683;50.864;12.086;2023-12-14T10:22:52;98775.69;;;6.42;100.00
9289;BME280;4683;50.864;12.086;2023-12-14T10:25:40;98780.94;;;6.42;100.00
9289;BME280;4683;50.864;12.086;2023-12-14T10:28:23;98792.88;;;6.44;100.00
9289;BME280;4683;50.864;12.086;2023-12-14T10:30:55;98793.53;;;6.46;100.00
9289;BME280;4683;50.864;12.086;2023-12-14T10:33:30;98797.97;;;6.46;100.00
9289;BME280;4683;50.864;12.086;2023-12-14T10:36:26;98797.63;;;6.49;100.00
9289;BME280;4683;50.864;12.086;2023-12-14T10:39:10;98801.59;;;6.61;100.00
9289;BME280;4683;50.864;12.086;2023-12-14T10:41:50;98807.00;;;6.68;100.00
9289;BME280;4683;50.864;12.086;2023-12-14T10:44:28;98809.44;;;6.61;100.00
9289;BME280;4683;50.864;12.086;2023-12-14T10:47:11;98811.91;;;6.54;100.00
9289;BME280;4683;50.864;12.086;2023-12-14T10:49:51;98826.81;;;6.62;100.00
9289;BME280;4683;50.864;12.086;2023-12-14T10:52:38;98824.69;;;6.66;100.00
9289;BME280;4683;50.864;12.086;2023-12-14T10:55:38;98831.22;;;6.45;100.00
9289;BME280;4683;50.864;12.086;2023-12-14T10:58:09;98833.16;;;6.43;100.00
9289;BME280;4683;50.864;12.086;2023-12-14T11:01:00;98835.22;;;6.23;100.00
9289;BME280;4683;50.864;12.086;2023-12-14T11:03:39;98833.09;;;6.19;100.00
9289;BME280;4683;50.864;12.086;2023-12-14T11:06:26;98839.13;;;6.19;100.00
9289;BME280;4683;50.864;12.086;2023-12-14T11:09:06;98842.28;;;6.23;100.00
9289;BME280;4683;50.864;12.086;2023-12-14T11:11:58;98843.09;;;6.23;100.00
9289;BME280;4683;50.864;12.086;2023-12-14T11:14:50;98846.19;;;6.19;100.00
9289;BME280;4683;50.864;12.086;2023-12-14T11:17:35;98859.03;;;6.04;100.00
9289;BME280;4683;50.864;12.086;2023-12-14T11:20:28;98866.53;;;5.99;100.00
9289;BME280;4683;50.864;12.086;2023-12-14T11:23:08;98870.13;;;5.98;100.00
9289;BME280;4683;50.864;12.086;2023-12-14T11:25:51;98876.19;;;5.98;100.00
9289;BME280;4683;50.864;12.086;2023-12-14T11:28:28;98874.56;;;5.97;100.00
9289;BME280;4683;50.864;12.086;2023-12-14T11:31:00;98891.97;;;5.89;100.00
9289;BME280;4683;50.864;12.086;2023-12-14T11:33:48;98887.16;;;5.76;100.00
9289;BME280;4683;50.864;12.086;2023-12-14T11:36:18;98882.25;;;5.81;100.00
9289;BME280;4683;50.864;12.086;2023-12-14T11:38:48;98885.41;;;5.84;100.00
9289;BME280;4683;50.864;12.086;2023-12-14T11:41:20;98883.25;;;5.80;100.00
9289;BME280;4683;50.864;12.086;2023-12-14T11:43:56;98888.66;;;5.78;100.00
9289;BME280;4683;50.864;12.086;2023-12-14T11:46:24;98883.25;;;5.80;100.00
9289;BME280;4683;50.864;12.086;2023-12-14T11:48:55;98893.59;;;5.81;100.00
9289;BME280;4683;50.864;12.086;2023-12-14T11:51:27;98903.19;;;5.81;100.00
9289;BME280;4683;50.864;12.086;2023-12-14T11:54:01;98897.16;;;5.80;100.00
9289;BME280;4683;50.864;12.086;2023-12-14T11:56:36;98899.16;;;5.87;100.00
9289;BME280;4683;50.864;12.086;2023-12-14T11:59:17;98907.50;;;5.82;100.00
9289;BME280;4683;50.864;12.086;2023-12-14T12:01:56;98904.63;;;5.93;100.00
9289;BME280;4683;50.864;12.086;2023-12-14T12:04:27;98915.09;;;5.93;100.00
9289;BME280;4683;50.864;12.086;2023-12-14T12:07:03;98916.50;;;5.88;100.00
9289;BME280;4683;50.864;12.086;2023-12-14T12:10:05;98926.28;;;5.85;100.00
9289;BME280;4683;50.864;12.086;2023-12-14T12:13:00;98924.31;;;5.79;100.00
9289;BME280;4683;50.864;12.086;2023-12-14T12:15:53;98925.22;;;5.70;100.00
9289;BME280;4683;50.864;12.086;2023-12-14T12:18:22;98933.13;;;5.78;100.00
9289;BME280;4683;50.864;12.086;2023-12-14T12:20:53;98932.00;;;5.81;100.00
9289;BME280;4683;50.864;12.086;2023-12-14T12:23:21;98937.09;;;5.82;100.00
9289;BME280;4683;50.864;12.086;2023-12-14T12:26:04;98930.97;;;5.92;100.00
9289;BME280;4683;50.864;12.086;2023-12-14T12:28:39;98936.13;;;5.83;100.00
9289;BME280;4683;50.864;12.086;2023-12-14T12:31:30;98928.25;;;5.83;100.00
9289;BME280;4683;50.864;12.086;2023-12-14T12:33:59;98934.66;;;5.89;100.00
9289;BME280;4683;50.864;12.086;2023-12-14T12:36:28;98930.63;;;5.95;100.00
9289;BME280;4683;50.864;12.086;2023-12-14T12:39:00;98933.25;;;5.95;100.00
9289;BME280;4683;50.864;12.086;2023-12-14T12:41:39;98942.84;;;5.86;100.00
9289;BME280;4683;50.864;12.086;2023-12-14T12:44:17;98943.16;;;5.83;100.00
9289;BME280;4683;50.864;12.086;2023-12-14T12:47:15;98947.41;;;5.84;100.00
9289;BME280;4683;50.864;12.086;2023-12-14T12:49:58;98953.34;;;5.68;100.00
9289;BME280;4683;50.864;12.086;2023-12-14T12:52:39;98958.88;;;5.65;100.00
9289;BME280;4683;50.864;12.086;2023-12-14T12:55:24;98950.78;;;5.58;100.00
9289;BME280;4683;50.864;12.086;2023-12-14T12:57:55;98958.16;;;5.55;100.00
9289;BME280;4683;50.864;12.086;2023-12-14T13:00:28;98960.59;;;5.56;100.00
9289;BME280;4683;50.864;12.086;2023-12-14T13:03:13;98947.59;;;5.65;100.00
9289;BME280;4683;50.864;12.086;2023-12-14T13:05:50;98953.03;;;5.71;100.00
9289;BME280;4683;50.864;12.086;2023-12-14T13:08:24;98952.44;;;5.77;100.00
9289;BME280;4683;50.864;12.086;2023-12-14T13:11:06;98972.03;;;5.73;100.00
9289;BME280;4683;50.864;12.086;2023-12-14T13:13:52;98971.88;;;5.57;100.00
9289;BME280;4683;50.864;12.086;2023-12-14T13:16:38;98967.53;;;5.66;100.00
9289;BME280;4683;50.864;12.086;2023-12-14T13:19:21;98972.03;;;5.73;100.00
9289;BME280;4683;50.864;12.086;2023-12-14T13:22:16;98989.63;;;5.45;100.00
9289;BME280;4683;50.864;12.086;2023-12-14T13:25:09;98985.66;;;5.59;100.00
9289;BME280;4683;50.864;12.086;2023-12-14T13:27:57;98998.78;;;5.67;100.00
9289;BME280;4683;50.864;12.086;2023-12-14T13:30:27;98998.13;;;5.65;100.00
9289;BME280;4683;50.864;12.086;2023-12-14T13:32:59;99005.69;;;5.68;100.00
9289;BME280;4683;50.864;12.086;2023-12-14T13:35:43;99010.06;;;5.68;100.00
9289;BME280;4683;50.864;12.086;2023-12-14T13:38:14;99009.56;;;5.64;100.00
9289;BME280;4683;50.864;12.086;2023-12-14T13:40:44;99018.06;;;5.66;100.00
9289;BME280;4683;50.864;12.086;2023-12-14T13:43:13;99020.13;;;5.54;100.00
9289;BME280;4683;50.864;12.086;2023-12-14T13:46:00;99029.16;;;5.60;100.00
9289;BME280;4683;50.864;12.086;2023-12-14T13:48:53;99032.06;;;5.57;100.00
9289;BME280;4683;50.864;12.086;2023-12-14T13:51:39;99037.75;;;5.52;100.00
9289;BME280;4683;50.864;12.086;2023-12-14T13:54:22;99043.31;;;5.40;100.00
9289;BME280;4683;50.864;12.086;2023-12-14T13:57:06;99057.44;;;5.29;100.00
9289;BME280;4683;50.864;12.086;2023-12-14T13:59:48;99058.28;;;5.29;100.00
9289;BME280;4683;50.864;12.086;2023-12-14T14:02:17;99058.66;;;5.34;100.00
9289;BME280;4683;50.864;12.086;2023-12-14T14:05:03;99072.03;;;5.31;100.00
9289;BME280;4683;50.864;12.086;2023-12-14T14:07:43;99072.91;;;5.22;100.00
9289;BME280;4683;50.864;12.086;2023-12-14T14:10:12;99075.22;;;5.25;100.00
9289;BME280;4683;50.864;12.086;2023-12-14T14:13:11;99073.97;;;5.29;100.00
9289;BME280;4683;50.864;12.086;2023-12-14T14:15:56;99085.56;;;5.17;100.00
9289;BME280;4683;50.864;12.086;2023-12-14T14:18:39;99078.59;;;5.08;100.00